Time;durP1;ratioP1;P1;durP2;ratioP2;P2;SDS_P1;SDS_P2;PMS_P1;PMS_P2;Temp;Humidity;BMP_temperature;BMP_pressure;BME280_temperature;BME280_humidity;BME280_pressure;Samples;Min_cycle;Max_cycle;Signal;HPM_P1;HPM_P2
2021/08/10 00:01:27;;;;;;;6.13;4.15;;;19.10;66.60;;;;;;5069817;28;20388;-82
2021/08/10 00:03:54;;;;;;;7.30;4.50;;;19.10;66.70;;;;;;5058450;28;20078;-81
2021/08/10 00:06:20;;;;;;;7.68;4.63;;;19.00;66.50;;;;;;5031990;28;20033;-81
2021/08/10 00:08:46;;;;;;;8.77;5.20;;;19.00;66.60;;;;;;5060337;28;20056;-80
2021/08/10 00:11:12;;;;;;;8.68;4.38;;;19.00;66.70;;;;;;5070113;28;20574;-79
2021/08/10 00:13:38;;;;;;;5.30;4.10;;;18.90;66.60;;;;;;5060446;28;20183;-79
2021/08/10 00:16:05;;;;;;;5.82;4.35;;;18.90;66.60;;;;;;5048837;28;20060;-79
2021/08/10 00:18:31;;;;;;;7.25;4.25;;;18.90;66.70;;;;;;5054707;28;20487;-79
2021/08/10 00:20:57;;;;;;;6.43;3.95;;;18.80;66.50;;;;;;5069527;28;20028;-79
2021/08/10 00:23:23;;;;;;;6.82;4.45;;;18.80;66.60;;;;;;5045334;28;20037;-80
2021/08/10 00:25:49;;;;;;;6.20;4.32;;;18.80;66.70;;;;;;5049170;28;20522;-79
2021/08/10 00:28:16;;;;;;;4.30;3.90;;;18.80;66.70;;;;;;5052689;28;20048;-79
2021/08/10 00:30:44;;;;;;;6.32;4.47;;;18.70;66.70;;;;;;5070051;28;20380;-79
2021/08/10 00:33:12;;;;;;;5.90;4.32;;;18.70;66.70;;;;;;5065387;28;20189;-80
2021/08/10 00:35:38;;;;;;;6.10;4.50;;;18.70;66.80;;;;;;5031608;28;20033;-80
2021/08/10 00:38:04;;;;;;;5.38;3.90;;;18.70;66.80;;;;;;5048493;28;20396;-81
2021/08/10 00:40:31;;;;;;;6.53;4.68;;;18.70;66.90;;;;;;5028288;28;20040;-80
2021/08/10 00:43:00;;;;;;;7.00;4.32;;;18.60;66.80;;;;;;5027840;28;20493;-80
2021/08/10 00:45:26;;;;;;;7.15;4.78;;;18.60;67.40;;;;;;5046794;28;20515;-81
2021/08/10 00:47:52;;;;;;;6.63;4.70;;;18.50;66.70;;;;;;5029659;28;20376;-81
2021/08/10 00:50:21;;;;;;;7.05;4.60;;;18.50;66.70;;;;;;5044180;28;20396;-80
2021/08/10 00:52:47;;;;;;;6.25;4.25;;;18.50;66.90;;;;;;5045687;28;20037;-80
2021/08/10 00:55:15;;;;;;;8.88;4.30;;;18.50;66.90;;;;;;5068157;28;20530;-80
2021/08/10 00:57:44;;;;;;;6.93;4.47;;;18.50;67.00;;;;;;5066890;28;20565;-80
2021/08/10 01:00:10;;;;;;;6.55;4.55;;;18.40;66.90;;;;;;5050557;28;20082;-79
2021/08/10 01:02:37;;;;;;;4.88;4.07;;;18.40;67.00;;;;;;5067156;28;20119;-79
2021/08/10 01:05:06;;;;;;;5.65;3.80;;;18.40;67.10;;;;;;5027070;28;20026;-80
2021/08/10 01:07:48;;;;;;;6.75;4.10;;;18.40;67.20;;;;;;5026886;28;20028;-79
2021/08/10 01:10:37;;;;;;;5.90;4.22;;;18.30;67.20;;;;;;5062371;28;20040;-79
2021/08/10 01:13:07;;;;;;;6.63;3.80;;;18.30;67.20;;;;;;5050318;28;20036;-79
2021/08/10 01:15:53;;;;;;;7.20;3.67;;;18.20;67.00;;;;;;5050357;28;20036;-78
2021/08/10 01:18:40;;;;;;;5.90;3.75;;;18.20;67.10;;;;;;5029888;28;20025;-79
2021/08/10 01:21:17;;;;;;;7.93;4.30;;;18.20;67.20;;;;;;5030332;28;20313;-79
2021/08/10 01:24:01;;;;;;;5.35;4.25;;;18.20;67.20;;;;;;5047055;28;20116;-79
2021/08/10 01:26:31;;;;;;;4.68;3.88;;;18.20;67.20;;;;;;5030063;28;20041;-80
2021/08/10 01:29:04;;;;;;;6.28;3.85;;;18.10;67.00;;;;;;5046143;28;20040;-79
2021/08/10 01:31:40;;;;;;;6.80;4.25;;;18.10;67.10;;;;;;5026032;28;20082;-78
2021/08/10 01:34:47;;;;;;;6.93;5.07;;;18.00;67.00;;;;;;5028129;28;20045;-78
2021/08/10 01:37:22;;;;;;;6.57;4.22;;;18.00;67.00;;;;;;5025630;28;20033;-79
2021/08/10 01:39:58;;;;;;;4.90;3.65;;;18.00;67.10;;;;;;5031297;28;20036;-79
2021/08/10 01:42:31;;;;;;;5.82;4.18;;;18.00;67.20;;;;;;5015880;28;20029;-79
2021/08/10 01:45:01;;;;;;;7.10;4.28;;;17.90;67.10;;;;;;5028087;28;20057;-79
2021/08/10 01:47:32;;;;;;;4.63;3.55;;;17.90;67.10;;;;;;5017783;28;20036;-79
2021/08/10 01:50:02;;;;;;;7.28;3.95;;;17.90;67.10;;;;;;5034105;28;20128;-78
2021/08/10 01:52:29;;;;;;;7.38;4.60;;;17.80;67.00;;;;;;5031007;28;20029;-80
2021/08/10 01:55:07;;;;;;;5.60;3.95;;;17.80;67.10;;;;;;5030517;28;20030;-79
2021/08/10 01:57:37;;;;;;;6.57;3.72;;;17.80;67.20;;;;;;5028578;28;20112;-79
2021/08/10 02:00:05;;;;;;;8.63;4.28;;;17.70;67.10;;;;;;5030763;28;20626;-79
2021/08/10 02:02:42;;;;;;;6.13;4.53;;;17.70;67.30;;;;;;5030305;28;20120;-81
2021/08/10 02:05:23;;;;;;;5.37;4.00;;;17.60;67.20;;;;;;5030234;28;20033;-80
2021/08/10 02:07:52;;;;;;;7.28;4.57;;;17.60;67.30;;;;;;5030830;28;20599;-80
2021/08/10 02:10:19;;;;;;;7.80;4.00;;;17.60;67.40;;;;;;5031018;28;20262;-79
2021/08/10 02:12:46;;;;;;;8.00;4.72;;;17.50;67.20;;;;;;5029946;28;20053;-80
2021/08/10 02:15:15;;;;;;;5.10;3.85;;;17.50;67.30;;;;;;5029669;28;20038;-81
2021/08/10 02:17:51;;;;;;;3.95;3.55;;;17.40;67.10;;;;;;5044393;28;20021;-80
2021/08/10 02:20:27;;;;;;;5.93;4.38;;;17.40;67.30;;;;;;5047341;28;20037;-80
2021/08/10 02:22:54;;;;;;;4.95;3.72;;;17.40;67.30;;;;;;5047150;28;20566;-81
2021/08/10 02:25:25;;;;;;;5.47;4.28;;;17.30;67.10;;;;;;5029595;28;20041;-81
2021/08/10 02:28:03;;;;;;;8.68;4.55;;;17.30;67.20;;;;;;5029466;28;20507;-81
2021/08/10 02:30:31;;;;;;;6.75;4.50;;;17.30;67.30;;;;;;5047062;28;20500;-80
2021/08/10 02:33:00;;;;;;;5.95;3.72;;;17.30;67.40;;;;;;5061798;28;20755;-81
2021/08/10 02:35:28;;;;;;;6.65;4.68;;;17.20;67.30;;;;;;5067159;28;20037;-80
2021/08/10 02:38:01;;;;;;;6.15;4.38;;;17.20;67.30;;;;;;5017447;28;20025;-80
2021/08/10 02:40:28;;;;;;;7.88;4.15;;;17.20;67.50;;;;;;5033766;28;20053;-79
2021/08/10 02:42:58;;;;;;;4.78;4.00;;;17.20;67.50;;;;;;5033347;28;20453;-79
2021/08/10 02:45:25;;;;;;;5.47;4.00;;;17.10;67.40;;;;;;5050462;28;20056;-79
2021/08/10 02:47:53;;;;;;;5.22;4.20;;;17.10;67.40;;;;;;5033263;28;20365;-78
2021/08/10 02:50:25;;;;;;;5.28;3.80;;;17.10;67.50;;;;;;5050121;28;20041;-79
2021/08/10 02:52:52;;;;;;;7.78;4.60;;;17.10;67.60;;;;;;5049929;28;20082;-79
2021/08/10 02:55:21;;;;;;;5.70;3.92;;;17.00;67.30;;;;;;5049748;28;20032;-79
2021/08/10 02:58:07;;;;;;;5.97;4.60;;;17.00;67.40;;;;;;5050156;28;20033;-78
2021/08/10 03:00:48;;;;;;;5.28;4.75;;;17.00;67.50;;;;;;5049669;28;20123;-79
2021/08/10 03:03:18;;;;;;;5.18;3.97;;;17.00;67.60;;;;;;5049957;28;20033;-79
2021/08/10 03:05:47;;;;;;;7.43;4.80;;;17.00;67.60;;;;;;5050105;28;20388;-79
2021/08/10 03:08:22;;;;;;;5.68;3.83;;;16.90;67.50;;;;;;5050842;28;20029;-79
2021/08/10 03:10:53;;;;;;;7.40;4.63;;;16.90;67.60;;;;;;5050644;28;20041;-79
2021/08/10 03:13:27;;;;;;;6.15;4.40;;;16.80;67.50;;;;;;5066332;28;20033;-79
2021/08/10 03:15:57;;;;;;;5.03;4.38;;;16.80;67.60;;;;;;5050006;28;20035;-79
2021/08/10 03:18:28;;;;;;;4.28;3.60;;;16.80;67.60;;;;;;5033138;28;20072;-79
2021/08/10 03:20:59;;;;;;;4.70;3.83;;;16.80;67.70;;;;;;5033539;28;20098;-79
2021/08/10 03:23:31;;;;;;;5.50;4.05;;;16.70;67.50;;;;;;5049732;28;20479;-79
2021/08/10 03:25:58;;;;;;;5.57;4.20;;;16.70;67.50;;;;;;5033157;28;20040;-79
2021/08/10 03:28:26;;;;;;;6.68;5.03;;;16.70;67.60;;;;;;5049801;28;20139;-78
2021/08/10 03:30:57;;;;;;;6.72;3.92;;;16.70;67.60;;;;;;5033214;28;20124;-78
2021/08/10 03:33:28;;;;;;;6.47;4.40;;;16.70;67.70;;;;;;5049600;28;20044;-80
2021/08/10 03:35:55;;;;;;;6.00;4.20;;;16.60;67.50;;;;;;5049872;28;20029;-80
2021/08/10 03:38:23;;;;;;;6.65;4.60;;;16.60;67.60;;;;;;5049906;28;20415;-78
2021/08/10 03:40:50;;;;;;;5.38;4.38;;;16.60;67.70;;;;;;5049687;28;20063;-79
2021/08/10 03:43:18;;;;;;;5.78;4.13;;;16.60;67.80;;;;;;5050899;28;20029;-79
2021/08/10 03:45:45;;;;;;;5.80;4.55;;;16.60;67.80;;;;;;5049707;28;20037;-78
2021/08/10 03:48:12;;;;;;;6.53;4.47;;;16.60;67.90;;;;;;5050807;28;20040;-79
2021/08/10 03:50:39;;;;;;;5.45;4.43;;;16.50;67.70;;;;;;5050466;28;20043;-79
2021/08/10 03:53:08;;;;;;;8.18;4.63;;;16.50;67.80;;;;;;5049661;28;20021;-79
2021/08/10 03:55:35;;;;;;;6.07;4.60;;;16.50;67.80;;;;;;5050194;28;20484;-78
2021/08/10 03:58:06;;;;;;;5.32;4.50;;;16.50;67.80;;;;;;5049678;28;20040;-78
2021/08/10 04:00:36;;;;;;;5.38;4.43;;;16.50;67.90;;;;;;5049328;28;20049;-77
2021/08/10 04:03:05;;;;;;;4.75;4.20;;;16.40;67.70;;;;;;5049450;28;20033;-79
2021/08/10 04:05:32;;;;;;;5.10;3.95;;;16.40;67.80;;;;;;5050499;28;20025;-77
2021/08/10 04:08:01;;;;;;;5.40;4.55;;;16.40;67.80;;;;;;5049418;28;20507;-78
2021/08/10 04:10:28;;;;;;;5.95;4.68;;;16.40;67.90;;;;;;5049321;28;20041;-79
2021/08/10 04:12:54;;;;;;;6.43;4.55;;;16.40;68.00;;;;;;5049012;28;20028;-78
2021/08/10 04:15:23;;;;;;;5.88;4.13;;;16.30;67.80;;;;;;5049622;28;20040;-79
2021/08/10 04:17:51;;;;;;;6.18;4.80;;;16.30;67.90;;;;;;5066378;28;20139;-78
2021/08/10 04:20:18;;;;;;;8.85;4.60;;;16.30;68.00;;;;;;5070935;28;20035;-78
2021/08/10 04:22:48;;;;;;;11.20;5.13;;;16.30;68.00;;;;;;5072721;28;20455;-78
2021/08/10 04:25:17;;;;;;;4.43;3.97;;;16.20;67.80;;;;;;5055771;28;20036;-78
2021/08/10 04:27:43;;;;;;;5.68;4.07;;;16.20;67.90;;;;;;5055689;28;20106;-78
2021/08/10 04:30:14;;;;;;;8.32;4.85;;;16.20;67.90;;;;;;5056482;28;20055;-79
2021/08/10 04:32:40;;;;;;;5.88;4.40;;;16.10;67.80;;;;;;5073729;28;20045;-79
2021/08/10 04:35:06;;;;;;;4.93;4.15;;;16.20;68.00;;;;;;5056540;28;20056;-79
2021/08/10 04:37:32;;;;;;;6.40;4.80;;;16.10;67.80;;;;;;5054557;28;20070;-80
2021/08/10 04:39:59;;;;;;;6.20;4.72;;;16.10;67.90;;;;;;5054992;28;20029;-80
2021/08/10 04:42:45;;;;;;;7.20;4.38;;;16.10;67.90;;;;;;5021022;28;20522;-78
2021/08/10 04:45:12;;;;;;;5.10;4.22;;;16.10;67.90;;;;;;5071426;28;20029;-79
2021/08/10 04:47:38;;;;;;;4.28;3.78;;;16.10;68.00;;;;;;5057138;28;20028;-79
2021/08/10 04:50:06;;;;;;;5.57;4.32;;;16.00;67.90;;;;;;5068747;28;20511;-80
2021/08/10 04:52:32;;;;;;;5.40;4.20;;;16.00;67.90;;;;;;5052787;28;20051;-80
2021/08/10 04:54:58;;;;;;;8.32;4.80;;;16.00;68.00;;;;;;5046612;28;20039;-80
2021/08/10 04:57:25;;;;;;;4.50;4.00;;;16.00;68.00;;;;;;5050177;28;20032;-81
2021/08/10 04:59:51;;;;;;;8.20;4.50;;;16.00;68.10;;;;;;5065409;28;20032;-80
2021/08/10 05:02:18;;;;;;;5.03;4.07;;;16.00;68.10;;;;;;5048714;28;20025;-80
2021/08/10 05:04:44;;;;;;;5.78;4.75;;;16.00;68.20;;;;;;5047742;28;20028;-81
2021/08/10 05:07:12;;;;;;;5.93;4.15;;;15.90;68.10;;;;;;5059960;28;20012;-78
2021/08/10 05:09:40;;;;;;;6.55;4.20;;;15.90;68.10;;;;;;5066588;28;20044;-79
2021/08/10 05:12:09;;;;;;;4.82;4.22;;;15.90;68.10;;;;;;5048471;28;20537;-80
2021/08/10 05:14:35;;;;;;;5.22;4.03;;;15.90;68.20;;;;;;5068649;28;20024;-81
2021/08/10 05:17:02;;;;;;;6.10;4.07;;;15.90;68.20;;;;;;5067381;28;20533;-80
2021/08/10 05:19:28;;;;;;;6.05;4.68;;;15.90;68.30;;;;;;5066044;28;20021;-81
2021/08/10 05:21:55;;;;;;;5.75;4.28;;;15.90;68.30;;;;;;5032732;28;20316;-81
2021/08/10 05:24:22;;;;;;;4.38;3.80;;;15.90;68.30;;;;;;5033292;28;20131;-83
2021/08/10 05:26:48;;;;;;;5.55;4.60;;;16.00;68.50;;;;;;5050029;28;20068;-83
2021/08/10 05:29:14;;;;;;;7.78;4.78;;;16.00;68.60;;;;;;5066430;28;20036;-83
2021/08/10 05:31:40;;;;;;;5.70;4.40;;;16.00;68.60;;;;;;5052161;28;20056;-81
2021/08/10 05:34:06;;;;;;;4.90;4.10;;;16.00;68.50;;;;;;5064055;28;20033;-82
2021/08/10 05:36:35;;;;;;;4.93;4.38;;;16.00;68.50;;;;;;5066977;28;20360;-80
2021/08/10 05:39:03;;;;;;;7.28;3.97;;;16.00;68.50;;;;;;5064311;28;20195;-80
2021/08/10 05:41:30;;;;;;;6.10;4.25;;;16.10;68.70;;;;;;5050194;28;20052;-84
2021/08/10 05:43:59;;;;;;;5.45;4.00;;;16.10;68.70;;;;;;5033345;28;20060;-82
2021/08/10 05:46:25;;;;;;;6.03;3.97;;;16.10;68.70;;;;;;5049906;28;20024;-82
2021/08/10 05:48:52;;;;;;;5.45;4.32;;;16.10;68.60;;;;;;5050429;28;20021;-83
2021/08/10 05:51:18;;;;;;;5.53;3.95;;;16.10;68.60;;;;;;5049600;28;20036;-83
2021/08/10 05:53:44;;;;;;;5.70;4.07;;;16.20;68.70;;;;;;5049492;28;20056;-85
2021/08/10 05:56:13;;;;;;;6.53;3.80;;;16.20;68.70;;;;;;5033715;28;20122;-85
2021/08/10 05:58:38;;;;;;;5.18;3.55;;;16.20;68.70;;;;;;5050579;28;20535;-87
2021/08/10 06:01:06;;;;;;;4.43;3.90;;;16.20;68.60;;;;;;5050302;28;20101;-83
2021/08/10 06:03:33;;;;;;;4.90;3.88;;;16.30;68.80;;;;;;5032825;28;20472;-81
2021/08/10 06:05:59;;;;;;;5.78;3.63;;;16.30;68.80;;;;;;5049442;28;20029;-82
2021/08/10 06:08:32;;;;;;;9.07;4.70;;;16.30;68.70;;;;;;5046563;28;20597;-81
2021/08/10 06:10:59;;;;;;;5.28;4.00;;;16.40;68.90;;;;;;5047553;28;20050;-80
2021/08/10 06:13:25;;;;;;;5.25;3.65;;;16.40;68.90;;;;;;5064958;28;20178;-81
2021/08/10 06:15:54;;;;;;;4.30;3.90;;;16.50;69.00;;;;;;5064680;28;20028;-78
2021/08/10 06:18:20;;;;;;;6.25;4.15;;;16.50;69.00;;;;;;5063939;28;20021;-84
2021/08/10 06:20:49;;;;;;;5.65;3.42;;;16.50;69.00;;;;;;5040264;28;20562;-81
2021/08/10 06:23:16;;;;;;;4.80;3.88;;;16.60;69.00;;;;;;5038912;28;20025;-82
2021/08/10 06:25:45;;;;;;;4.10;3.60;;;16.70;69.10;;;;;;5053017;28;20033;-80
2021/08/10 06:28:14;;;;;;;5.10;4.25;;;16.70;69.00;;;;;;5051997;28;20387;-91
2021/08/10 06:30:40;;;;;;;4.30;3.70;;;16.80;69.10;;;;;;5030757;28;20052;-81
2021/08/10 06:33:06;;;;;;;7.70;4.32;;;16.80;69.60;;;;;;5066475;28;20045;-83
2021/08/10 06:35:33;;;;;;;8.48;3.75;;;16.80;69.10;;;;;;5047321;28;20029;-81
2021/08/10 06:38:00;;;;;;;8.27;3.90;;;16.90;69.20;;;;;;5033890;28;20029;-83
2021/08/10 06:40:30;;;;;;;5.57;3.55;;;16.90;69.10;;;;;;5032938;28;20497;-83
2021/08/10 06:42:56;;;;;;;4.80;3.95;;;16.90;69.10;;;;;;5033682;28;20439;-84
2021/08/10 06:45:26;;;;;;;5.20;3.95;;;17.00;69.20;;;;;;5048597;28;20040;-83
2021/08/10 06:47:52;;;;;;;5.35;3.72;;;17.10;69.30;;;;;;5065561;28;20032;-84
2021/08/10 06:50:25;;;;;;;4.72;3.97;;;17.10;69.20;;;;;;5048286;28;20089;-82
2021/08/10 06:52:51;;;;;;;5.22;4.05;;;17.10;69.10;;;;;;5030872;28;20032;-82
2021/08/10 06:55:18;;;;;;;5.55;3.95;;;17.20;69.20;;;;;;5047749;28;20024;-82
2021/08/10 06:57:50;;;;;;;5.50;4.32;;;17.30;69.40;;;;;;5031473;28;20562;-82
2021/08/10 07:00:16;;;;;;;5.93;3.75;;;17.30;69.30;;;;;;5030897;28;20256;-83
2021/08/10 07:02:42;;;;;;;5.10;3.53;;;17.40;69.40;;;;;;5030650;28;20039;-83
2021/08/10 07:05:15;;;;;;;4.53;3.78;;;17.50;69.40;;;;;;5033681;28;20399;-83
2021/08/10 07:07:42;;;;;;;4.72;3.92;;;17.50;69.30;;;;;;5065157;28;20056;-83
2021/08/10 07:10:08;;;;;;;4.63;3.72;;;17.50;69.10;;;;;;5047539;28;20048;-82
2021/08/10 07:12:36;;;;;;;4.68;4.18;;;17.60;69.20;;;;;;5057450;28;20067;-84
2021/08/10 07:15:02;;;;;;;4.50;3.72;;;17.60;69.20;;;;;;5064504;28;20036;-84
2021/08/10 07:17:29;;;;;;;4.63;3.70;;;17.70;69.30;;;;;;5048059;28;20036;-86
2021/08/10 07:19:56;;;;;;;3.83;3.38;;;17.70;69.30;;;;;;5049288;28;20097;-84
2021/08/10 07:22:24;;;;;;;6.00;3.80;;;17.80;69.50;;;;;;5065402;28;20035;-84
2021/08/10 07:24:51;;;;;;;5.50;3.50;;;17.80;69.40;;;;;;5031217;28;20037;-83
2021/08/10 07:27:18;;;;;;;8.63;4.03;;;17.80;69.30;;;;;;5047533;28;20089;-82
2021/08/10 07:29:45;;;;;;;5.95;3.70;;;17.90;69.40;;;;;;5047933;28;20033;-83
2021/08/10 07:32:11;;;;;;;5.10;3.72;;;18.00;69.50;;;;;;5046982;28;20504;-82
2021/08/10 07:34:38;;;;;;;4.05;3.65;;;18.00;69.50;;;;;;5048231;28;20124;-81
2021/08/10 07:37:06;;;;;;;4.15;3.53;;;18.20;69.90;;;;;;5031120;28;20079;-80
2021/08/10 07:39:32;;;;;;;5.15;3.53;;;18.40;70.10;;;;;;5064610;28;20035;-81
2021/08/10 07:41:58;;;;;;;5.30;3.50;;;18.60;70.10;;;;;;5047892;28;20040;-81
2021/08/10 07:44:24;;;;;;;5.85;3.70;;;18.70;70.00;;;;;;5065767;28;20036;-82
2021/08/10 07:46:51;;;;;;;4.68;3.40;;;19.00;70.50;;;;;;5030926;28;20475;-82
2021/08/10 07:49:21;;;;;;;7.60;4.00;;;19.30;71.20;;;;;;5064284;28;20044;-82
2021/08/10 07:51:47;;;;;;;5.65;3.92;;;19.70;70.80;;;;;;5047783;28;20029;-82
2021/08/10 07:54:13;;;;;;;5.82;2.97;;;20.20;71.10;;;;;;5046979;28;20098;-79
2021/08/10 07:56:39;;;;;;;4.03;3.25;;;20.60;71.30;;;;;;5033007;28;20059;-87
2021/08/10 07:59:07;;;;;;;4.80;3.80;;;20.90;70.10;;;;;;5052807;28;20033;-93
2021/08/10 08:01:33;;;;;;;5.55;3.13;;;21.10;69.90;;;;;;5017902;28;20250;-83
2021/08/10 08:04:00;;;;;;;4.97;3.58;;;21.30;69.80;;;;;;5063630;28;20028;-86
2021/08/10 08:06:26;;;;;;;3.70;2.92;;;21.60;69.90;;;;;;5067939;28;20151;-84
2021/08/10 08:08:52;;;;;;;4.22;3.40;;;21.80;69.70;;;;;;5052060;28;20031;-88
2021/08/10 08:11:21;;;;;;;5.28;3.30;;;22.20;69.70;;;;;;5036149;28;20154;-84
2021/08/10 08:13:50;;;;;;;3.10;2.80;;;22.60;69.70;;;;;;5051610;28;20075;-85
2021/08/10 08:16:18;;;;;;;4.47;3.17;;;22.80;69.10;;;;;;5068390;28;20033;-88
2021/08/10 08:18:44;;;;;;;4.28;3.25;;;23.10;68.90;;;;;;5052341;28;20418;-84
2021/08/10 08:21:13;;;;;;;3.72;3.30;;;23.30;68.70;;;;;;5038951;28;20480;-84
2021/08/10 08:23:43;;;;;;;3.85;2.78;;;23.50;68.50;;;;;;5045020;28;20033;-85
2021/08/10 08:26:10;;;;;;;4.57;2.88;;;23.80;68.30;;;;;;5050906;28;20060;-85
2021/08/10 08:28:39;;;;;;;3.97;2.88;;;24.10;68.20;;;;;;5051339;28;20055;-81
2021/08/10 08:31:07;;;;;;;3.35;3.05;;;24.40;67.90;;;;;;5068194;28;20037;-84
2021/08/10 08:33:33;;;;;;;3.85;2.90;;;24.60;67.60;;;;;;5050471;28;20056;-84
2021/08/10 08:36:00;;;;;;;4.72;3.00;;;24.60;67.10;;;;;;5034294;28;20033;-84
2021/08/10 08:38:26;;;;;;;3.20;2.60;;;24.70;67.00;;;;;;5049642;28;20373;-91
2021/08/10 08:40:53;;;;;;;5.15;2.83;;;24.70;66.80;;;;;;5050743;28;20035;-83
2021/08/10 08:43:22;;;;;;;5.47;2.75;;;24.80;66.90;;;;;;5044466;28;20037;-84
2021/08/10 08:45:50;;;;;;;3.38;3.00;;;24.80;66.70;;;;;;5059107;28;20035;-81
2021/08/10 08:48:16;;;;;;;4.90;2.65;;;24.70;66.50;;;;;;5067445;28;20398;-83
2021/08/10 08:50:46;;;;;;;5.80;3.00;;;24.60;66.40;;;;;;5050875;28;20041;-80
2021/08/10 08:53:14;;;;;;;4.63;2.80;;;24.50;66.50;;;;;;5058685;28;20025;-81
2021/08/10 08:55:44;;;;;;;3.50;2.85;;;24.40;66.50;;;;;;5053824;28;20365;-81
2021/08/10 08:58:12;;;;;;;4.03;2.72;;;24.30;66.50;;;;;;5063532;28;20024;-82
2021/08/10 09:00:39;;;;;;;4.22;2.88;;;24.30;66.50;;;;;;5033268;28;20500;-80
2021/08/10 09:03:05;;;;;;;4.13;2.65;;;24.40;66.70;;;;;;5066818;28;20078;-80
2021/08/10 09:05:33;;;;;;;5.20;2.42;;;24.40;66.70;;;;;;5050751;28;20032;-80
2021/08/10 09:08:25;;;;;;;4.30;2.65;;;24.30;66.50;;;;;;5049690;28;20155;-80
2021/08/10 09:11:03;;;;;;;3.13;2.50;;;24.20;66.40;;;;;;5050206;28;20037;-80
2021/08/10 09:13:32;;;;;;;6.32;2.97;;;24.30;66.50;;;;;;5049600;28;20067;-79
2021/08/10 09:16:04;;;;;;;4.50;2.72;;;24.30;66.60;;;;;;5068048;28;20032;-79
2021/08/10 09:18:30;;;;;;;6.50;3.05;;;24.20;66.50;;;;;;5050161;28;20429;-80
2021/08/10 09:21:04;;;;;;;5.50;2.78;;;24.20;66.60;;;;;;5050213;28;20139;-80
2021/08/10 09:23:51;;;;;;;3.40;2.75;;;24.20;66.60;;;;;;5067685;28;20052;-80
2021/08/10 09:26:35;;;;;;;4.13;3.08;;;24.20;66.70;;;;;;5040743;28;20032;-81
2021/08/10 09:29:03;;;;;;;4.43;2.80;;;24.30;66.80;;;;;;5066325;28;20082;-81
2021/08/10 09:31:38;;;;;;;6.00;2.55;;;24.40;66.80;;;;;;5066309;28;20052;-81
2021/08/10 09:34:20;;;;;;;4.00;3.10;;;24.50;66.70;;;;;;5067618;28;20541;-80
2021/08/10 09:36:47;;;;;;;2.85;2.38;;;24.60;66.60;;;;;;5067739;28;20040;-81
2021/08/10 09:39:14;;;;;;;7.10;2.78;;;24.70;66.70;;;;;;5065794;28;20459;-81
2021/08/10 09:41:59;;;;;;;4.65;3.03;;;24.70;66.70;;;;;;5067959;28;20046;-80
2021/08/10 09:44:25;;;;;;;4.50;3.13;;;24.70;66.60;;;;;;5049478;28;20595;-81
2021/08/10 09:46:53;;;;;;;4.30;3.00;;;24.60;66.60;;;;;;5049244;28;20115;-81
2021/08/10 09:49:20;;;;;;;7.40;3.35;;;24.60;66.70;;;;;;5049245;28;20303;-80
2021/08/10 09:51:51;;;;;;;3.45;2.55;;;24.50;66.50;;;;;;5049984;28;20041;-81
2021/08/10 09:54:21;;;;;;;5.50;2.63;;;24.60;66.60;;;;;;5048804;28;20024;-80
2021/08/10 09:56:55;;;;;;;4.60;2.65;;;24.50;66.60;;;;;;5067330;28;20436;-81
2021/08/10 09:59:26;;;;;;;4.97;3.10;;;24.50;66.80;;;;;;5049507;28;20032;-82
2021/08/10 10:01:56;;;;;;;4.60;2.65;;;24.50;66.90;;;;;;5050282;28;20111;-84
2021/08/10 10:04:28;;;;;;;4.03;2.88;;;24.50;66.90;;;;;;5029472;28;20093;-86
2021/08/10 10:07:14;;;;;;;3.97;2.58;;;24.40;66.70;;;;;;5045441;28;20245;-85
2021/08/10 10:10:03;;;;;;;6.30;3.15;;;24.40;66.70;;;;;;5065404;28;20044;-85
2021/08/10 10:12:36;;;;;;;4.75;3.00;;;24.40;66.80;;;;;;5037450;28;20039;-81
2021/08/10 10:15:02;;;;;;;5.75;2.60;;;24.40;66.80;;;;;;5065493;28;20028;-82
2021/08/10 10:17:32;;;;;;;4.82;2.58;;;24.40;66.90;;;;;;5066544;28;20033;-82
2021/08/10 10:19:59;;;;;;;3.67;2.85;;;24.30;66.80;;;;;;5066133;28;20032;-82
2021/08/10 10:22:28;;;;;;;3.55;2.70;;;24.30;66.90;;;;;;5066359;28;20029;-82
2021/08/10 10:24:57;;;;;;;4.25;3.13;;;24.20;66.70;;;;;;5067222;28;20087;-82
2021/08/10 10:27:24;;;;;;;3.85;2.60;;;24.20;66.80;;;;;;5066799;28;20071;-82
2021/08/10 10:29:53;;;;;;;2.88;2.50;;;24.10;66.70;;;;;;5066658;28;20040;-82
2021/08/10 10:32:21;;;;;;;5.10;3.15;;;24.10;66.80;;;;;;5066515;28;20049;-83
2021/08/10 10:34:48;;;;;;;5.47;2.80;;;24.10;66.90;;;;;;5067513;28;20082;-83
2021/08/10 10:37:26;;;;;;;3.10;2.50;;;24.10;66.90;;;;;;5067644;28;20024;-83
2021/08/10 10:39:58;;;;;;;4.20;2.78;;;24.30;67.10;;;;;;5049255;28;20035;-83
2021/08/10 10:42:25;;;;;;;3.70;3.00;;;24.50;67.00;;;;;;5064433;28;20035;-83
2021/08/10 10:44:51;;;;;;;4.10;2.70;;;24.80;67.20;;;;;;5046818;28;20097;-82
2021/08/10 10:47:38;;;;;;;5.88;3.15;;;25.00;67.10;;;;;;5046282;28;20033;-82
2021/08/10 10:50:05;;;;;;;4.47;2.50;;;25.20;66.90;;;;;;5026828;28;20503;-81
2021/08/10 10:52:33;;;;;;;6.90;3.30;;;25.50;66.60;;;;;;5030211;28;20124;-85
2021/08/10 10:55:01;;;;;;;4.85;2.97;;;25.60;66.30;;;;;;5028764;28;20532;-83
2021/08/10 10:57:30;;;;;;;4.30;3.08;;;25.70;66.10;;;;;;5047893;28;20120;-86
2021/08/10 10:59:57;;;;;;;4.00;2.67;;;25.80;65.70;;;;;;5029076;28;20036;-84
2021/08/10 11:02:27;;;;;;;3.25;2.90;;;25.90;65.60;;;;;;5030145;28;20491;-85
2021/08/10 11:05:21;;;;;;;3.95;3.20;;;25.90;65.30;;;;;;5031742;28;20105;-84
2021/08/10 11:07:55;;;;;;;3.67;2.70;;;26.00;65.30;;;;;;5047680;28;20052;-83
2021/08/10 11:10:39;;;;;;;7.32;2.90;;;26.10;65.10;;;;;;5025339;28;20053;-82
2021/08/10 11:13:36;;;;;;;4.97;3.22;;;26.20;65.10;;;;;;5035209;28;20459;-86
2021/08/10 11:16:03;;;;;;;7.90;3.53;;;26.30;65.00;;;;;;5030022;28;20125;-84
2021/08/10 11:18:29;;;;;;;5.30;2.78;;;26.30;64.90;;;;;;5049743;28;20036;-90
2021/08/10 11:20:59;;;;;;;4.68;3.05;;;26.40;64.80;;;;;;5029762;28;20057;-87
2021/08/10 11:23:26;;;;;;;4.32;3.00;;;26.50;64.60;;;;;;5057811;28;20544;-88
2021/08/10 11:26:13;;;;;;;5.95;3.17;;;26.60;64.60;;;;;;5049466;28;20517;-85
2021/08/10 11:28:51;;;;;;;9.02;3.60;;;26.60;64.40;;;;;;5066566;28;20040;-86
2021/08/10 11:31:36;;;;;;;7.70;3.72;;;26.60;64.10;;;;;;5068252;28;20040;-85
2021/08/10 11:34:03;;;;;;;6.80;3.30;;;26.60;64.00;;;;;;5053582;28;20509;-83
2021/08/10 11:36:30;;;;;;;7.63;3.53;;;26.70;64.00;;;;;;5032127;28;20025;-82
2021/08/10 11:38:56;;;;;;;7.13;3.33;;;26.80;64.00;;;;;;5060671;28;20029;-80
2021/08/10 11:41:27;;;;;;;4.63;3.38;;;26.90;63.90;;;;;;5068874;28;20102;-81
2021/08/10 11:43:56;;;;;;;6.18;3.67;;;26.90;63.70;;;;;;5068507;28;20032;-82
2021/08/10 11:46:31;;;;;;;3.72;3.13;;;27.00;63.60;;;;;;5064096;28;20036;-82
2021/08/10 11:48:59;;;;;;;3.90;3.17;;;27.10;63.60;;;;;;5031835;28;20384;-84
2021/08/10 11:51:28;;;;;;;7.88;3.38;;;27.20;63.50;;;;;;5015472;28;20399;-86
2021/08/10 11:53:59;;;;;;;5.88;3.10;;;27.30;63.40;;;;;;5034563;28;20024;-83
2021/08/10 11:56:25;;;;;;;4.82;3.28;;;27.30;63.20;;;;;;5068200;28;20033;-81
2021/08/10 11:58:51;;;;;;;5.13;3.58;;;27.40;63.80;;;;;;5057938;28;20036;-82
2021/08/10 12:01:17;;;;;;;5.07;3.67;;;27.50;63.10;;;;;;5049427;28;20025;-82
2021/08/10 12:03:44;;;;;;;6.65;3.10;;;27.60;63.00;;;;;;5031473;28;20152;-82
2021/08/10 12:06:11;;;;;;;4.82;3.15;;;27.60;62.80;;;;;;5035123;28;20482;-83
2021/08/10 12:08:39;;;;;;;4.43;2.92;;;27.60;62.80;;;;;;5037772;28;20079;-83
2021/08/10 12:11:05;;;;;;;5.70;3.42;;;27.70;62.80;;;;;;5048890;28;20040;-81
2021/08/10 12:13:31;;;;;;;6.57;2.97;;;27.70;62.60;;;;;;5048109;28;20112;-81
2021/08/10 12:15:57;;;;;;;4.75;3.38;;;27.70;62.50;;;;;;5049126;28;20155;-83
2021/08/10 12:18:25;;;;;;;5.40;3.30;;;27.80;62.60;;;;;;5031879;28;20037;-86
2021/08/10 12:21:03;;;;;;;5.32;2.85;;;27.80;62.50;;;;;;5049024;28;20040;-81
2021/08/10 12:24:07;;;;;;;4.15;2.92;;;27.90;62.40;;;;;;5042528;28;20037;-80
2021/08/10 12:26:34;;;;;;;3.42;2.92;;;28.00;62.40;;;;;;4994263;28;20091;-82
2021/08/10 12:29:36;;;;;;;3.50;2.95;;;28.00;62.30;;;;;;5040492;28;20617;-81
2021/08/10 12:32:07;;;;;;;7.22;3.17;;;28.10;62.10;;;;;;5021035;28;20068;-81
2021/08/10 12:34:35;;;;;;;4.65;3.40;;;28.20;62.10;;;;;;5048791;28;20501;-82
2021/08/10 12:37:04;;;;;;;5.38;3.55;;;28.30;62.00;;;;;;5030995;28;20029;-81
2021/08/10 12:39:31;;;;;;;5.53;3.47;;;28.30;61.80;;;;;;5046575;28;20119;-82
2021/08/10 12:41:59;;;;;;;5.00;2.97;;;28.40;61.70;;;;;;5040962;28;20132;-83
2021/08/10 12:44:26;;;;;;;4.47;3.05;;;28.50;61.60;;;;;;5048982;28;20376;-83
2021/08/10 12:46:57;;;;;;;4.20;3.08;;;28.50;61.40;;;;;;5048814;28;20029;-84
2021/08/10 12:49:39;;;;;;;6.00;3.25;;;28.60;61.40;;;;;;5047534;28;20116;-82
2021/08/10 12:52:08;;;;;;;3.70;2.97;;;28.70;61.40;;;;;;5047571;28;20041;-83
2021/08/10 12:54:58;;;;;;;5.90;3.35;;;28.80;61.30;;;;;;5018197;28;20036;-82
2021/08/10 12:57:27;;;;;;;5.07;2.80;;;28.80;61.20;;;;;;5041873;28;20048;-83
2021/08/10 12:59:55;;;;;;;11.50;5.15;;;28.90;61.00;;;;;;5057763;28;20037;-84